ADDS METAR Data INFO
IDs: Format: Raw Decoded Include TAF

Data at: 0039 UTC 23 Oct 2017

KBLH 222352Z AUTO 35012KT 10SM CLR 33/M09 A3008 RMK AO2 SLP180 T03281089 10328 20250 $
KBLH 222252Z AUTO 36007KT 10SM 33/M09 A3010 RMK AO2 SLP187 T03281094 $
KBLH 222152Z AUTO 34012KT 10SM CLR 32/M11 A3011 RMK AO2 SLP190 T03221106 $
KBLH 222052Z AUTO 01007KT 10SM CLR 32/M11 A3013 RMK AO2 SLP199 T03171106 58025 $
KBLH 221952Z AUTO 08006KT 10SM CLR 30/M07 A3016 RMK AO2 SLP208 T03001067 $
KBLH 221752Z AUTO 10003KT 25/M05 A3021 RMK AO2 SLP224 T02501050 10250 20117 $
KBLH 221652Z AUTO 00000KT 10SM CLR 22/M04 A3021 RMK AO2 SLP225 T02221044 $
KBLH 221552Z AUTO 08004KT 10SM CLR 19/M07 A3020 RMK AO2 SLP223 T01941067 $
KBLH 221452Z AUTO 00000KT 10SM CLR 17/M09 A3018 RMK AO2 SLP214 T01721094 53012 $
KBLH 221352Z AUTO 00000KT 10SM CLR 13/M09 A3016 RMK AO2 SLP207 T01281094 $
KBLH 221152Z AUTO 22003KT 10SM CLR 16/M09 A3014 RMK AO2 SLP201 T01561089 10206 20156 53005 $
KBLH 221052Z AUTO 20006KT 10SM CLR 17/M09 A3013 RMK AO2 SLP198 T01671094 $
KBLH 220952Z AUTO 35008KT 10SM CLR 17/M11 A3012 RMK AO2 SLP195 T01671106 $
KBLH 220852Z AUTO 35007KT 10SM CLR 19/M11 A3013 RMK AO2 SLP196 T01891106 53009 $
KBLH 220752Z AUTO 35007KT 10SM CLR 19/M11 A3011 RMK AO2 SLP192 T01891111 402940161 $
KBLH 220652Z AUTO 34008KT 10SM CLR 19/M11 A3011 RMK AO2 SLP189 T01941111 $
KBLH 220552Z AUTO 34010KT 10SM CLR 21/M12 A3010 RMK AO2 SLP187 T02061117 10289 20200 $
KBLH 220452Z AUTO 36008KT 10SM CLR 21/M11 A3010 RMK AO2 SLP186 T02061106 $
KBLH 220352Z AUTO 33008KT 10SM CLR 21/M09 A3007 RMK AO2 SLP176 T02111089
KBLH 220252Z AUTO 32009KT 10SM CLR 23/M09 A3006 RMK AO2 SLP173 T02331089 51015
KBLH 220152Z AUTO 35010KT 10SM CLR 25/M09 A3005 RMK AO2 SLP171 T02501094
KBLH 220052Z AUTO 35008KT 10SM CLR 27/M09 A3002 RMK AO2 SLP161 T02721094
KBLH 212352Z AUTO 34013KT 10SM CLR 29/M09 A3001 RMK AO2 SLP158 T02891089 10294 20261 53001
KBLH 212252Z AUTO 35014KT 10SM CLR 29/M09 A3000 RMK AO2 SLP155 T02941089
KBLH 212152Z AUTO 33011G20KT 10SM CLR 29/M09 A3001 RMK AO2 SLP155 T02891089
KBLH 212052Z AUTO 33014G22KT 10SM CLR 29/M09 A3001 RMK AO2 SLP156 T02941089 58013
KBLH 211952Z AUTO 33015G21KT 10SM CLR 28/M09 A3002 RMK AO2 SLP160 T02831089
KBLH 211852Z AUTO 35014KT 10SM CLR 27/M09 A3005 RMK AO2 SLP169 T02721089
KBLH 211752Z AUTO 35018G25KT 10SM CLR 26/M08 A3005 RMK AO2 SLP169 T02561078 10256 20172 51022
KBLH 211652Z AUTO 34018KT 10SM CLR 24/M06 A3004 RMK AO2 SLP167 T02391056
KBLH 211552Z AUTO 36013KT 10SM CLR 22/M03 A3002 RMK AO2 SLP161 T02221028
KBLH 211452Z AUTO 35010KT 10SM CLR 18/00 A2998 RMK AO2 SLP148 T01830000 51033
KBLH 211352Z AUTO 33009KT 10SM CLR 18/00 A2995 RMK AO2 SLP136 T01780000
KBLH 211252Z AUTO 34009G18KT 10SM CLR 19/00 A2992 RMK AO2 WSHFT 1207 SLP126 T01890000